createdAt,value
2018-05-12T00:00:11.010Z,14.60
2018-05-12T00:01:05.373Z,14.70
2018-05-12T00:02:05.826Z,14.60
2018-05-12T00:03:05.709Z,14.60
2018-05-12T00:04:05.127Z,14.60
2018-05-12T00:05:05.141Z,14.60
2018-05-12T00:06:10.854Z,14.60
2018-05-12T00:07:10.972Z,14.70
2018-05-12T00:08:05.907Z,1.80
2018-05-12T00:09:07.753Z,14.60
2018-05-12T00:10:05.117Z,14.60
2018-05-12T00:11:05.611Z,14.60
2018-05-12T00:12:05.621Z,14.60
2018-05-12T00:13:05.878Z,14.60
2018-05-12T00:14:07.877Z,14.60
2018-05-12T00:15:05.293Z,14.60
2018-05-12T00:16:05.994Z,14.60
2018-05-12T00:17:06.277Z,14.60
2018-05-12T00:18:05.708Z,14.60
2018-05-12T00:19:08.435Z,14.50
2018-05-12T00:20:05.725Z,14.50
2018-05-12T00:21:05.925Z,14.50
2018-05-12T00:22:05.514Z,14.50
2018-05-12T00:23:05.891Z,14.50
2018-05-12T00:24:07.944Z,14.50
2018-05-12T00:25:07.773Z,14.50
2018-05-12T00:26:05.618Z,14.50
2018-05-12T00:27:08.627Z,14.40
2018-05-12T00:28:06.588Z,14.40
2018-05-12T00:29:05.578Z,14.40
2018-05-12T00:30:06.451Z,14.40
2018-05-12T00:31:05.152Z,14.40
2018-05-12T00:32:10.946Z,14.40
2018-05-12T00:33:05.788Z,14.40
2018-05-12T00:34:08.165Z,14.30
2018-05-12T00:35:05.490Z,14.30
2018-05-12T00:36:07.868Z,14.30
2018-05-12T00:37:05.211Z,14.30
2018-05-12T00:38:05.886Z,14.40
2018-05-12T00:39:05.599Z,14.30
2018-05-12T00:40:05.557Z,14.40
2018-05-12T00:41:13.699Z,14.30
2018-05-12T00:42:06.112Z,14.30
2018-05-12T00:43:08.430Z,14.30
2018-05-12T00:44:06.150Z,14.30
2018-05-12T00:45:10.792Z,14.30
2018-05-12T00:46:09.223Z,14.30
2018-05-12T00:47:05.714Z,14.30
2018-05-12T00:48:05.356Z,14.30
2018-05-12T00:49:08.280Z,14.30
2018-05-12T00:50:09.272Z,14.30
2018-05-12T00:51:10.822Z,14.30
2018-05-12T00:52:10.307Z,14.30
2018-05-12T00:53:05.198Z,14.30
2018-05-12T00:54:05.616Z,14.30
2018-05-12T00:55:05.292Z,14.30
2018-05-12T00:56:05.583Z,14.30
2018-05-12T00:57:09.300Z,14.30
2018-05-12T00:58:05.844Z,14.30
2018-05-12T00:59:10.822Z,14.30
2018-05-12T01:00:05.173Z,14.30
2018-05-12T01:01:05.680Z,14.30
2018-05-12T01:02:08.897Z,14.20
2018-05-12T01:03:07.815Z,14.30
2018-05-12T01:04:05.582Z,14.30
2018-05-12T01:05:05.542Z,14.30
2018-05-12T01:06:09.001Z,14.20
2018-05-12T01:07:10.435Z,14.30
2018-05-12T01:08:05.892Z,14.20
2018-05-12T01:09:09.180Z,14.30
2018-05-12T01:10:05.656Z,14.30
2018-05-12T01:11:05.312Z,14.20
2018-05-12T01:12:09.127Z,14.20
2018-05-12T01:13:05.431Z,14.20
2018-05-12T01:14:05.352Z,14.30
2018-05-12T01:15:05.817Z,14.20
2018-05-12T01:16:08.894Z,14.20
2018-05-12T01:17:05.627Z,14.20
2018-05-12T01:18:08.404Z,14.20
2018-05-12T01:19:05.783Z,14.20
2018-05-12T01:20:05.271Z,14.20
2018-05-12T01:21:06.060Z,14.20
2018-05-12T01:22:05.859Z,14.20
2018-05-12T01:23:10.490Z,14.20
2018-05-12T01:24:05.756Z,14.20
2018-05-12T01:25:05.053Z,14.20
2018-05-12T01:26:10.542Z,14.20
2018-05-12T01:27:05.925Z,14.20
2018-05-12T01:28:05.076Z,14.20
2018-05-12T01:29:05.621Z,14.20
2018-05-12T01:30:10.901Z,14.20
2018-05-12T01:31:05.239Z,14.20
2018-05-12T01:32:09.231Z,14.20
2018-05-12T01:33:05.691Z,14.20
2018-05-12T01:34:05.474Z,14.20
2018-05-12T01:35:06.037Z,14.20
2018-05-12T01:36:05.940Z,14.20
2018-05-12T01:37:05.668Z,14.10
2018-05-12T01:38:08.460Z,14.10
2018-05-12T01:39:05.876Z,14.10
2018-05-12T01:40:08.507Z,14.10
2018-05-12T01:41:05.340Z,14.10
2018-05-12T01:42:05.550Z,14.10
2018-05-12T01:43:05.242Z,14.10
2018-05-12T01:44:05.662Z,14.10
2018-05-12T01:45:05.199Z,14.10
2018-05-12T01:46:09.263Z,14.10
2018-05-12T01:47:05.601Z,14.10
2018-05-12T01:48:06.193Z,14.10
2018-05-12T01:49:10.975Z,14.10
2018-05-12T01:50:05.271Z,14.10
2018-05-12T01:51:05.304Z,14.10
2018-05-12T01:52:05.389Z,14.10
2018-05-12T01:53:05.648Z,14.10
2018-05-12T01:54:09.349Z,14.10
2018-05-12T01:55:05.723Z,14.10
2018-05-12T01:56:10.397Z,14.10
2018-05-12T01:57:08.943Z,14.20
2018-05-12T01:58:05.444Z,14.20
2018-05-12T01:59:06.111Z,14.20
2018-05-12T02:00:05.568Z,14.20
2018-05-12T02:01:10.336Z,14.20
2018-05-12T02:02:05.757Z,14.20
2018-05-12T02:03:05.840Z,14.20
2018-05-12T02:04:07.879Z,14.20
2018-05-12T02:05:05.179Z,14.20
2018-05-12T02:06:05.812Z,14.20
2018-05-12T02:07:05.348Z,14.20
2018-05-12T02:08:05.896Z,14.20
2018-05-12T02:09:05.352Z,14.20
2018-05-12T02:10:05.322Z,14.20
2018-05-12T02:11:05.758Z,14.20
2018-05-12T02:12:05.637Z,14.20
2018-05-12T02:13:05.552Z,14.20
2018-05-12T02:14:08.962Z,14.20
2018-05-12T02:15:08.985Z,14.20
2018-05-12T02:16:10.607Z,14.20
2018-05-12T02:17:05.376Z,14.20
2018-05-12T02:18:05.398Z,14.20
2018-05-12T02:19:06.192Z,14.20
2018-05-12T02:20:08.685Z,14.20
2018-05-12T02:21:10.648Z,14.20
2018-05-12T02:22:06.035Z,14.20
2018-05-12T02:23:05.917Z,14.20
2018-05-12T02:24:09.332Z,14.20
2018-05-12T02:25:05.749Z,14.20
2018-05-12T02:26:08.592Z,14.20
2018-05-12T02:27:09.321Z,14.20
2018-05-12T02:28:05.710Z,14.10
2018-05-12T02:29:05.467Z,14.20
2018-05-12T02:30:05.615Z,14.20
2018-05-12T02:31:05.857Z,14.20
2018-05-12T02:32:06.141Z,14.20
2018-05-12T02:33:09.604Z,14.20
2018-05-12T02:34:05.657Z,14.20
2018-05-12T02:35:12.749Z,14.20
2018-05-12T02:36:05.243Z,14.20
2018-05-12T02:37:05.629Z,14.20
2018-05-12T02:38:05.825Z,14.10
2018-05-12T02:39:05.761Z,14.10
2018-05-12T02:40:05.658Z,14.10
2018-05-12T02:41:08.625Z,14.10
2018-05-12T02:42:09.352Z,14.10
2018-05-12T02:43:08.325Z,14.10
2018-05-12T02:44:06.003Z,14.10
2018-05-12T02:45:05.537Z,14.10
2018-05-12T02:46:05.406Z,14.10
2018-05-12T02:47:10.998Z,14.10
2018-05-12T02:48:08.070Z,14.10
2018-05-12T02:49:10.470Z,14.10
2018-05-12T02:50:12.847Z,14.00
2018-05-12T02:51:07.751Z,14.10
2018-05-12T02:52:05.050Z,14.10
2018-05-12T02:53:05.343Z,14.00
2018-05-12T02:54:13.032Z,14.00
2018-05-12T02:55:05.990Z,14.00
2018-05-12T02:56:05.443Z,14.00
2018-05-12T02:57:05.888Z,14.00
2018-05-12T02:58:05.430Z,14.00
2018-05-12T02:59:11.114Z,14.00
2018-05-12T03:00:07.628Z,13.90
2018-05-12T03:01:06.072Z,14.00
2018-05-12T03:02:05.972Z,14.00
2018-05-12T03:03:09.195Z,13.90
2018-05-12T03:04:05.541Z,14.00
2018-05-12T03:05:10.693Z,13.90
2018-05-12T03:06:10.190Z,13.90
2018-05-12T03:07:05.462Z,13.90
2018-05-12T03:08:05.020Z,13.90
2018-05-12T03:09:05.731Z,13.90
2018-05-12T03:10:08.628Z,13.90
2018-05-12T03:11:05.981Z,13.90
2018-05-12T03:12:08.561Z,13.90
2018-05-12T03:13:06.102Z,13.90
2018-05-12T03:14:05.679Z,13.90
2018-05-12T03:15:05.742Z,13.90
2018-05-12T03:16:09.014Z,13.90
2018-05-12T03:17:05.552Z,13.90
2018-05-12T03:18:06.038Z,13.90
2018-05-12T03:19:09.125Z,13.90
2018-05-12T03:20:05.522Z,13.90
2018-05-12T03:21:06.006Z,13.90
2018-05-12T03:22:08.617Z,13.90
2018-05-12T03:23:11.104Z,13.90
2018-05-12T03:24:10.213Z,13.90
2018-05-12T03:25:09.705Z,14.00
2018-05-12T03:26:05.774Z,14.00
2018-05-12T03:27:05.155Z,14.00
2018-05-12T03:28:06.109Z,14.00
2018-05-12T03:29:05.701Z,14.00
2018-05-12T03:30:05.538Z,14.00
2018-05-12T03:31:06.053Z,14.00
2018-05-12T03:32:08.595Z,14.00
2018-05-12T03:33:09.334Z,14.00
2018-05-12T03:34:05.748Z,14.00
2018-05-12T03:35:05.423Z,14.00
2018-05-12T03:36:09.397Z,14.00
2018-05-12T03:37:06.029Z,14.00
2018-05-12T03:38:05.029Z,14.00
2018-05-12T03:39:10.417Z,14.10
2018-05-12T03:40:05.964Z,14.10
2018-05-12T03:41:05.236Z,14.10
2018-05-12T03:42:08.633Z,14.00
2018-05-12T03:43:06.332Z,14.10
2018-05-12T03:44:05.285Z,14.10
2018-05-12T03:45:08.485Z,14.10
2018-05-12T03:46:05.797Z,14.10
2018-05-12T03:47:09.448Z,14.00
2018-05-12T03:48:08.642Z,14.00
2018-05-12T03:49:10.130Z,14.00
2018-05-12T03:50:05.639Z,14.00
2018-05-12T03:51:05.699Z,14.00
2018-05-12T03:52:05.480Z,14.00
2018-05-12T03:53:06.526Z,14.00
2018-05-12T03:54:09.125Z,14.00
2018-05-12T03:55:05.982Z,14.00
2018-05-12T03:56:05.290Z,14.00
2018-05-12T03:57:05.266Z,14.00
2018-05-12T03:58:05.061Z,14.00
2018-05-12T03:59:05.552Z,13.90
2018-05-12T04:00:05.732Z,13.90
2018-05-12T04:01:05.299Z,13.90
2018-05-12T04:02:08.427Z,13.90
2018-05-12T04:03:06.836Z,13.90
2018-05-12T04:04:08.642Z,13.90
2018-05-12T04:05:09.267Z,13.90
2018-05-12T04:06:05.956Z,13.90
2018-05-12T04:07:05.149Z,13.90
2018-05-12T04:08:05.557Z,13.90
2018-05-12T04:09:05.340Z,13.90
2018-05-12T04:10:05.604Z,13.90
2018-05-12T04:11:05.370Z,13.90
2018-05-12T04:12:05.947Z,13.90
2018-05-12T04:13:05.226Z,13.90
2018-05-12T04:14:05.910Z,13.90
2018-05-12T04:15:05.953Z,13.90
2018-05-12T04:16:05.443Z,13.90
2018-05-12T04:17:07.873Z,13.90
2018-05-12T04:18:05.247Z,13.90
2018-05-12T04:19:10.798Z,13.90
2018-05-12T04:20:05.728Z,13.90
2018-05-12T04:21:05.433Z,13.90
2018-05-12T04:22:05.912Z,14.00
2018-05-12T04:23:06.034Z,14.00
2018-05-12T04:24:07.967Z,14.00
2018-05-12T04:25:08.567Z,14.00
2018-05-12T04:26:06.009Z,14.00
2018-05-12T04:27:05.483Z,14.00
2018-05-12T04:28:06.268Z,14.00
2018-05-12T04:29:05.947Z,14.00
2018-05-12T04:30:12.764Z,14.00
2018-05-12T04:31:07.918Z,14.00
2018-05-12T04:32:05.772Z,14.00
2018-05-12T04:33:05.352Z,14.10
2018-05-12T04:34:10.353Z,14.10
2018-05-12T04:35:08.783Z,14.10
2018-05-12T04:36:10.258Z,14.10
2018-05-12T04:37:10.600Z,14.10
2018-05-12T04:38:11.004Z,14.10
2018-05-12T04:39:05.616Z,14.10
2018-05-12T04:40:10.481Z,14.10
2018-05-12T04:41:08.545Z,14.20
2018-05-12T04:42:05.881Z,14.10
2018-05-12T04:43:05.293Z,14.10
2018-05-12T04:44:08.545Z,14.20
2018-05-12T04:45:08.859Z,14.20
2018-05-12T04:46:06.444Z,14.20
2018-05-12T04:47:09.097Z,14.20
2018-05-12T04:48:05.555Z,14.20
2018-05-12T04:49:11.823Z,14.20
2018-05-12T04:50:05.259Z,14.20
2018-05-12T04:51:05.190Z,14.20
2018-05-12T04:52:05.318Z,14.20
2018-05-12T04:53:12.796Z,14.20
2018-05-12T04:54:05.337Z,14.30
2018-05-12T04:55:08.772Z,14.30
2018-05-12T04:56:05.422Z,14.30
2018-05-12T04:57:07.837Z,14.30
2018-05-12T04:58:05.650Z,14.30
2018-05-12T04:59:05.817Z,14.30
2018-05-12T05:00:10.269Z,14.30
2018-05-12T05:01:05.159Z,14.30
2018-05-12T05:02:09.070Z,14.30
2018-05-12T05:03:05.448Z,14.30
2018-05-12T05:04:05.283Z,14.30
2018-05-12T05:05:05.513Z,14.30
2018-05-12T05:06:05.928Z,14.30
2018-05-12T05:07:05.495Z,14.40
2018-05-12T05:08:13.136Z,14.40
2018-05-12T05:09:05.959Z,14.40
2018-05-12T05:10:10.107Z,14.40
2018-05-12T05:11:07.856Z,14.40
2018-05-12T05:12:05.293Z,14.40
2018-05-12T05:13:05.730Z,14.40
2018-05-12T05:14:05.577Z,14.40
2018-05-12T05:15:05.447Z,14.40
2018-05-12T05:16:08.997Z,14.40
2018-05-12T05:17:10.547Z,14.40
2018-05-12T05:18:05.890Z,14.40
2018-05-12T05:19:08.583Z,14.40
2018-05-12T05:20:05.869Z,14.40
2018-05-12T05:21:05.920Z,14.40
2018-05-12T05:22:08.726Z,14.50
2018-05-12T05:23:05.176Z,14.40
2018-05-12T05:24:07.805Z,14.50
2018-05-12T05:25:10.234Z,14.50
2018-05-12T05:26:05.632Z,14.40
2018-05-12T05:27:10.629Z,14.50
2018-05-12T05:28:05.911Z,14.50
2018-05-12T05:29:05.373Z,14.40
2018-05-12T05:30:05.053Z,14.50
2018-05-12T05:31:06.003Z,14.50
2018-05-12T05:32:05.613Z,14.50
2018-05-12T05:33:06.836Z,14.50
2018-05-12T05:34:05.828Z,14.60
2018-05-12T05:35:05.799Z,14.50
2018-05-12T05:36:09.143Z,14.60
2018-05-12T05:37:05.862Z,14.60
2018-05-12T05:38:05.801Z,14.60
2018-05-12T05:39:05.045Z,14.60
2018-05-12T05:40:05.418Z,14.70
2018-05-12T05:41:06.512Z,14.70
2018-05-12T05:42:10.845Z,14.70
2018-05-12T05:43:05.466Z,14.70
2018-05-12T05:44:13.226Z,14.80
2018-05-12T05:45:05.747Z,14.80
2018-05-12T05:46:08.516Z,14.90
2018-05-12T05:47:10.972Z,14.80
2018-05-12T05:48:05.276Z,14.90
2018-05-12T05:49:10.979Z,14.90
2018-05-12T05:50:05.428Z,14.90
2018-05-12T05:51:08.714Z,14.90
2018-05-12T05:52:05.510Z,14.90
2018-05-12T05:53:08.712Z,14.90
2018-05-12T05:54:05.648Z,14.90
2018-05-12T05:55:05.948Z,14.90
2018-05-12T05:56:06.031Z,15.00
2018-05-12T05:57:05.439Z,15.00
2018-05-12T05:58:06.016Z,15.00
2018-05-12T05:59:08.235Z,15.10
2018-05-12T06:00:05.300Z,15.00
2018-05-12T06:01:05.639Z,15.10
2018-05-12T06:02:09.112Z,15.10
2018-05-12T06:03:05.959Z,15.10
2018-05-12T06:04:05.918Z,15.20
2018-05-12T06:05:15.662Z,15.20
2018-05-12T06:06:08.615Z,15.20
2018-05-12T06:07:06.149Z,15.20
2018-05-12T06:08:05.174Z,15.30
2018-05-12T06:09:10.952Z,15.30
2018-05-12T06:10:05.556Z,15.30
2018-05-12T06:11:09.514Z,15.40
2018-05-12T06:12:05.565Z,15.40
2018-05-12T06:13:10.986Z,15.50
2018-05-12T06:14:05.271Z,15.50
2018-05-12T06:15:05.282Z,15.50
2018-05-12T06:16:07.876Z,15.50
2018-05-12T06:17:05.283Z,15.60
2018-05-12T06:18:05.548Z,15.60
2018-05-12T06:19:05.340Z,15.60
2018-05-12T06:20:05.810Z,15.70
2018-05-12T06:21:05.517Z,15.70
2018-05-12T06:22:05.236Z,15.80
2018-05-12T06:23:05.493Z,15.90
2018-05-12T06:24:05.728Z,16.00
2018-05-12T06:25:08.593Z,16.30
2018-05-12T06:26:11.154Z,16.40
2018-05-12T06:27:05.540Z,16.40
2018-05-12T06:28:05.335Z,16.60
2018-05-12T06:29:05.905Z,16.80
2018-05-12T06:30:10.233Z,17.10
2018-05-12T06:31:05.581Z,17.10
2018-05-12T06:32:10.659Z,17.30
2018-05-12T06:33:05.849Z,17.50
2018-05-12T06:34:06.231Z,17.70
2018-05-12T06:35:08.002Z,18.00
2018-05-12T06:36:07.887Z,18.10
2018-05-12T06:37:08.800Z,18.30
2018-05-12T06:38:08.038Z,18.40
2018-05-12T06:39:05.482Z,18.40
2018-05-12T06:40:05.885Z,18.60
2018-05-12T06:41:09.274Z,18.80
2018-05-12T06:42:06.684Z,18.80
2018-05-12T06:43:05.431Z,18.90
2018-05-12T06:44:10.990Z,19.00
2018-05-12T06:45:05.486Z,19.10
2018-05-12T06:46:05.667Z,19.20
2018-05-12T06:47:05.300Z,19.30
2018-05-12T06:48:08.260Z,19.60
2018-05-12T06:49:05.818Z,19.50
2018-05-12T06:50:06.063Z,19.70
2018-05-12T06:51:05.390Z,19.80
2018-05-12T06:52:07.898Z,20.00
2018-05-12T06:53:05.237Z,19.90
2018-05-12T06:54:13.000Z,20.10
2018-05-12T06:55:08.014Z,20.30
2018-05-12T06:56:05.435Z,20.20
2018-05-12T06:57:05.724Z,20.30
2018-05-12T06:58:05.799Z,20.30
2018-05-12T06:59:08.281Z,20.50
2018-05-12T07:00:05.924Z,20.50
2018-05-12T07:01:06.027Z,20.50
2018-05-12T07:02:12.954Z,20.70
2018-05-12T07:03:05.611Z,20.70
2018-05-12T07:04:09.116Z,20.80
2018-05-12T07:05:05.726Z,20.80
2018-05-12T07:06:08.296Z,21.00
2018-05-12T07:07:05.827Z,21.00
2018-05-12T07:08:06.158Z,21.00
2018-05-12T07:09:05.702Z,21.10
2018-05-12T07:10:05.403Z,21.20
2018-05-12T07:11:06.111Z,21.30
2018-05-12T07:12:06.141Z,21.30
2018-05-12T07:13:06.086Z,21.40
2018-05-12T07:14:06.367Z,21.50
2018-05-12T07:15:06.200Z,21.60
2018-05-12T07:16:05.545Z,21.60
2018-05-12T07:17:05.516Z,21.70
2018-05-12T07:18:07.798Z,21.80
2018-05-12T07:19:08.808Z,21.80
2018-05-12T07:20:05.438Z,21.80
2018-05-12T07:21:06.035Z,21.90
2018-05-12T07:22:06.130Z,21.90
2018-05-12T07:23:05.470Z,21.90
2018-05-12T07:24:08.886Z,22.00
2018-05-12T07:25:05.706Z,22.00
2018-05-12T07:26:05.658Z,22.00
2018-05-12T07:27:06.105Z,22.10
2018-05-12T07:28:06.058Z,22.10
2018-05-12T07:29:10.836Z,22.20
2018-05-12T07:30:10.914Z,22.20
2018-05-12T07:31:08.025Z,22.30
2018-05-12T07:32:08.343Z,22.40
2018-05-12T07:33:06.395Z,22.40
2018-05-12T07:34:05.980Z,22.50
2018-05-12T07:35:08.382Z,22.60
2018-05-12T07:36:06.096Z,22.60
2018-05-12T07:37:08.458Z,22.60
2018-05-12T07:38:08.963Z,22.60
2018-05-12T07:39:08.707Z,22.60
2018-05-12T07:40:05.367Z,22.70
2018-05-12T07:41:05.349Z,22.70
2018-05-12T07:42:06.003Z,22.80
2018-05-12T07:43:10.865Z,22.80
2018-05-12T07:44:05.741Z,22.80
2018-05-12T07:45:05.767Z,22.80
2018-05-12T07:46:06.058Z,22.90
2018-05-12T07:47:06.098Z,22.90
2018-05-12T07:48:06.118Z,22.90
2018-05-12T07:49:06.236Z,22.90
2018-05-12T07:50:08.475Z,23.00
2018-05-12T07:51:11.186Z,23.00
2018-05-12T07:52:05.765Z,23.00
2018-05-12T07:53:05.668Z,23.10
2018-05-12T07:54:10.621Z,23.20
2018-05-12T07:55:05.976Z,23.20
2018-05-12T07:56:09.271Z,23.30
2018-05-12T07:57:05.861Z,23.30
2018-05-12T07:58:05.726Z,23.40
2018-05-12T07:59:09.412Z,23.50
2018-05-12T08:00:06.490Z,23.50
2018-05-12T08:01:06.462Z,23.50
2018-05-12T08:02:05.742Z,23.60
2018-05-12T08:03:08.432Z,23.60
2018-05-12T08:04:05.960Z,23.60
2018-05-12T08:05:06.144Z,23.60
2018-05-12T08:06:06.149Z,23.70
2018-05-12T08:07:08.348Z,23.70
2018-05-12T08:08:06.375Z,23.70
2018-05-12T08:09:09.354Z,23.80
2018-05-12T08:10:09.559Z,23.80
2018-05-12T08:11:05.507Z,23.80
2018-05-12T08:12:09.206Z,24.00
2018-05-12T08:13:09.967Z,24.00
2018-05-12T08:14:08.643Z,24.00
2018-05-12T08:15:05.326Z,24.00
2018-05-12T08:16:08.407Z,24.10
2018-05-12T08:17:06.055Z,24.00
2018-05-12T08:18:06.128Z,24.10
2018-05-12T08:19:09.328Z,24.00
2018-05-12T08:20:08.082Z,24.00
2018-05-12T08:21:05.559Z,24.00
2018-05-12T08:22:05.331Z,24.00
2018-05-12T08:23:05.428Z,24.00
2018-05-12T08:24:07.976Z,24.00
2018-05-12T08:25:05.430Z,24.00
2018-05-12T08:26:05.340Z,24.00
2018-05-12T08:27:05.724Z,24.10
2018-05-12T08:28:06.538Z,24.10
2018-05-12T08:29:06.423Z,24.20
2018-05-12T08:30:06.240Z,24.30
2018-05-12T08:31:06.423Z,24.30
2018-05-12T08:32:08.568Z,24.40
2018-05-12T08:33:08.726Z,24.50
2018-05-12T08:34:05.224Z,24.50
2018-05-12T08:35:07.823Z,24.50
2018-05-12T08:36:05.518Z,24.50
2018-05-12T08:37:05.385Z,24.60
2018-05-12T08:38:05.829Z,24.60
2018-05-12T08:39:11.036Z,24.70
2018-05-12T08:40:05.997Z,24.80
2018-05-12T08:41:10.629Z,24.80
2018-05-12T08:42:05.632Z,24.80
2018-05-12T08:43:05.705Z,24.90
2018-05-12T08:44:10.661Z,24.90
2018-05-12T08:45:07.715Z,24.90
2018-05-12T08:46:07.966Z,24.90
2018-05-12T08:47:08.386Z,25.00
2018-05-12T08:48:08.659Z,25.00
2018-05-12T08:49:06.130Z,25.00
2018-05-12T08:50:07.858Z,25.10
2018-05-12T08:51:11.626Z,25.10
2018-05-12T08:52:05.329Z,25.10
2018-05-12T08:53:05.974Z,25.10
2018-05-12T08:54:05.486Z,25.10
2018-05-12T08:55:05.420Z,25.10
2018-05-12T08:56:06.333Z,25.00
2018-05-12T08:57:10.364Z,24.90
2018-05-12T08:58:08.325Z,24.90
2018-05-12T08:59:06.133Z,24.90
2018-05-12T09:00:11.060Z,24.90
2018-05-12T09:01:05.814Z,24.90
2018-05-12T09:02:10.872Z,24.90
2018-05-12T09:03:10.668Z,24.90
2018-05-12T09:04:05.324Z,25.00
2018-05-12T09:05:10.172Z,25.00
2018-05-12T09:06:05.682Z,25.00
2018-05-12T09:07:05.780Z,25.00
2018-05-12T09:08:08.659Z,25.00
2018-05-12T09:09:05.417Z,25.00
2018-05-12T09:10:08.247Z,25.00
2018-05-12T09:11:05.917Z,25.00
2018-05-12T09:12:06.129Z,25.00
2018-05-12T09:13:05.313Z,25.10
2018-05-12T09:14:06.282Z,25.10
2018-05-12T09:15:05.299Z,25.10
2018-05-12T09:16:10.569Z,25.10
2018-05-12T09:17:11.068Z,25.10
2018-05-12T09:18:05.240Z,25.10
2018-05-12T09:19:05.323Z,25.00
2018-05-12T09:20:06.158Z,25.00
2018-05-12T09:21:05.830Z,25.00
2018-05-12T09:22:09.388Z,25.00
2018-05-12T09:23:09.386Z,25.00
2018-05-12T09:24:06.098Z,25.10
2018-05-12T09:25:10.874Z,25.00
2018-05-12T09:26:05.552Z,24.90
2018-05-12T09:27:07.736Z,24.90
2018-05-12T09:28:05.303Z,24.90
2018-05-12T09:29:05.749Z,24.90
2018-05-12T09:30:05.753Z,24.80
2018-05-12T09:31:05.410Z,24.80
2018-05-12T09:32:11.323Z,24.80
2018-05-12T09:33:05.883Z,24.80
2018-05-12T09:34:09.812Z,24.80
2018-05-12T09:35:16.102Z,24.90
2018-05-12T09:36:05.599Z,24.80
2018-05-12T09:37:10.473Z,24.80
2018-05-12T09:38:05.556Z,24.80
2018-05-12T09:39:06.128Z,24.80
2018-05-12T09:40:05.748Z,24.70
2018-05-12T09:41:06.503Z,24.70
2018-05-12T09:42:10.862Z,24.60
2018-05-12T09:43:07.987Z,24.50
2018-05-12T09:44:05.517Z,24.50
2018-05-12T09:45:10.793Z,24.30
2018-05-12T09:46:07.750Z,24.20
2018-05-12T09:47:05.745Z,24.20
2018-05-12T09:48:10.444Z,24.10
2018-05-12T09:49:06.999Z,24.10
2018-05-12T09:50:05.575Z,24.10
2018-05-12T09:51:07.950Z,24.20
2018-05-12T09:52:05.617Z,24.20
2018-05-12T09:53:05.588Z,24.30
2018-05-12T09:54:08.244Z,24.30
2018-05-12T09:55:09.448Z,24.40
2018-05-12T09:56:07.733Z,24.40
2018-05-12T09:57:08.945Z,24.40
2018-05-12T09:58:05.554Z,24.40
2018-05-12T09:59:11.051Z,24.60
2018-05-12T10:00:05.575Z,24.50
2018-05-12T10:01:11.027Z,24.60
2018-05-12T10:02:05.467Z,24.60
2018-05-12T10:03:05.441Z,24.70
2018-05-12T10:04:06.068Z,24.70
2018-05-12T10:05:08.619Z,24.80
2018-05-12T10:06:10.619Z,24.70
2018-05-12T10:07:05.260Z,24.60
2018-05-12T10:08:13.671Z,24.50
2018-05-12T10:09:05.202Z,24.50
2018-05-12T10:10:08.501Z,24.40
2018-05-12T10:11:08.762Z,24.20
2018-05-12T10:12:08.190Z,24.20
2018-05-12T10:13:05.920Z,24.10
2018-05-12T10:14:08.535Z,24.10
2018-05-12T10:15:06.440Z,24.00
2018-05-12T10:16:05.305Z,24.00
2018-05-12T10:17:10.647Z,23.80
2018-05-12T10:18:06.308Z,23.80
2018-05-12T10:19:13.018Z,23.80
2018-05-12T10:20:05.670Z,23.70
2018-05-12T10:21:05.362Z,23.80
2018-05-12T10:22:05.940Z,23.70
2018-05-12T10:23:10.628Z,23.70
2018-05-12T10:24:10.454Z,23.80
2018-05-12T10:25:06.270Z,23.80
2018-05-12T10:26:06.041Z,23.90
2018-05-12T10:27:05.209Z,24.00
2018-05-12T10:28:08.452Z,24.20
2018-05-12T10:29:11.272Z,24.30
2018-05-12T10:30:06.014Z,24.40
2018-05-12T10:31:10.441Z,24.60
2018-05-12T10:32:09.171Z,24.70
2018-05-12T10:33:09.152Z,24.80
2018-05-12T10:34:10.854Z,24.90
2018-05-12T10:35:08.684Z,25.00
2018-05-12T10:36:05.357Z,25.00
2018-05-12T10:37:05.306Z,25.10
2018-05-12T10:38:13.429Z,25.20
2018-05-12T10:39:11.145Z,25.20
2018-05-12T10:40:05.648Z,25.30
2018-05-12T10:41:10.611Z,25.30
2018-05-12T10:42:05.402Z,25.30
2018-05-12T10:43:05.478Z,25.30
2018-05-12T10:44:05.684Z,25.20
2018-05-12T10:45:08.717Z,25.10
2018-05-12T10:46:05.340Z,25.10
2018-05-12T10:47:05.674Z,25.10
2018-05-12T10:48:10.566Z,25.20
2018-05-12T10:49:05.578Z,25.20
2018-05-12T10:50:11.222Z,25.30
2018-05-12T10:51:05.979Z,25.30
2018-05-12T10:52:05.333Z,25.40
2018-05-12T10:53:10.634Z,25.50
2018-05-12T10:54:12.962Z,25.60
2018-05-12T10:55:05.883Z,25.60
2018-05-12T10:56:05.515Z,25.70
2018-05-12T10:57:06.168Z,25.80
2018-05-12T10:58:05.334Z,25.80
2018-05-12T10:59:05.348Z,25.90
2018-05-12T11:00:06.135Z,25.90
2018-05-12T11:01:05.217Z,25.90
2018-05-12T11:02:05.387Z,25.90
2018-05-12T11:03:05.422Z,25.90
2018-05-12T11:04:08.000Z,25.90
2018-05-12T11:05:08.253Z,25.90
2018-05-12T11:06:05.752Z,25.90
2018-05-12T11:07:05.852Z,25.90
2018-05-12T11:08:05.618Z,25.90
2018-05-12T11:09:05.346Z,25.90
2018-05-12T11:10:08.008Z,25.90
2018-05-12T11:11:05.668Z,25.90
2018-05-12T11:12:05.497Z,26.00
2018-05-12T11:13:06.328Z,26.00
2018-05-12T11:14:05.362Z,26.00
2018-05-12T11:15:11.095Z,26.00
2018-05-12T11:16:10.972Z,26.10
2018-05-12T11:17:08.202Z,26.20
2018-05-12T11:18:05.859Z,26.20
2018-05-12T11:19:05.399Z,26.20
2018-05-12T11:20:08.691Z,26.30
2018-05-12T11:21:10.586Z,26.20
2018-05-12T11:22:06.255Z,26.20
2018-05-12T11:23:06.197Z,26.20
2018-05-12T11:24:10.525Z,26.00
2018-05-12T11:25:06.149Z,26.00
2018-05-12T11:26:06.159Z,26.00
2018-05-12T11:27:05.892Z,26.00
2018-05-12T11:28:06.019Z,25.90
2018-05-12T11:29:05.786Z,25.90
2018-05-12T11:30:08.336Z,25.90
2018-05-12T11:31:05.927Z,25.90
2018-05-12T11:32:05.921Z,25.90
2018-05-12T11:33:05.396Z,25.80
2018-05-12T11:34:08.032Z,25.80
2018-05-12T11:35:08.070Z,25.90
2018-05-12T11:36:08.234Z,25.80
2018-05-12T11:37:10.885Z,25.80
2018-05-12T11:38:08.903Z,25.70
2018-05-12T11:39:05.469Z,25.70
2018-05-12T11:40:06.171Z,25.60
2018-05-12T11:41:06.354Z,25.60
2018-05-12T11:42:08.842Z,25.50
2018-05-12T11:43:05.469Z,25.50
2018-05-12T11:44:05.444Z,25.40
2018-05-12T11:45:08.907Z,25.30
2018-05-12T11:46:07.949Z,25.20
2018-05-12T11:47:05.374Z,25.20
2018-05-12T11:48:06.154Z,25.20
2018-05-12T11:49:05.577Z,25.20
2018-05-12T11:50:06.172Z,25.20
2018-05-12T11:51:05.431Z,25.20
2018-05-12T11:52:05.514Z,25.20
2018-05-12T11:53:08.375Z,25.40
2018-05-12T11:54:06.148Z,25.40
2018-05-12T11:55:13.799Z,25.50
2018-05-12T11:56:07.766Z,25.40
2018-05-12T11:57:05.324Z,25.50
2018-05-12T11:58:05.213Z,25.40
2018-05-12T11:59:05.402Z,25.50
2018-05-12T12:00:07.856Z,25.50
2018-05-12T12:01:07.813Z,25.50
2018-05-12T12:02:09.877Z,25.50
2018-05-12T12:03:10.469Z,25.50
2018-05-12T12:04:05.601Z,25.60
2018-05-12T12:05:08.533Z,25.70
2018-05-12T12:06:06.028Z,25.70
2018-05-12T12:07:05.264Z,25.70
2018-05-12T12:08:08.196Z,25.80
2018-05-12T12:09:10.935Z,25.90
2018-05-12T12:10:10.715Z,25.90
2018-05-12T12:11:05.298Z,25.90
2018-05-12T12:12:05.486Z,26.00
2018-05-12T12:13:08.515Z,26.00
2018-05-12T12:14:06.144Z,26.00
2018-05-12T12:15:06.163Z,26.00
2018-05-12T12:16:05.354Z,26.00
2018-05-12T12:17:05.561Z,25.90
2018-05-12T12:18:11.073Z,25.90
2018-05-12T12:19:05.520Z,25.90
2018-05-12T12:20:05.715Z,25.90
2018-05-12T12:21:05.496Z,25.80
2018-05-12T12:22:05.876Z,25.90
2018-05-12T12:23:05.737Z,25.90
2018-05-12T12:24:10.712Z,25.90
2018-05-12T12:25:05.491Z,25.80
2018-05-12T12:26:05.274Z,25.80
2018-05-12T12:27:05.499Z,25.70
2018-05-12T12:28:09.662Z,25.70
2018-05-12T12:29:06.508Z,25.60
2018-05-12T12:30:05.626Z,25.60
2018-05-12T12:31:08.627Z,25.50
2018-05-12T12:32:09.286Z,25.40
2018-05-12T12:33:08.772Z,25.30
2018-05-12T12:34:07.992Z,25.20
2018-05-12T12:35:05.957Z,25.20
2018-05-12T12:36:11.128Z,25.20
2018-05-12T12:37:05.454Z,25.10
2018-05-12T12:38:05.847Z,25.10
2018-05-12T12:39:08.115Z,25.10
2018-05-12T12:40:10.744Z,25.20
2018-05-12T12:41:05.917Z,25.20
2018-05-12T12:42:05.824Z,25.20
2018-05-12T12:43:08.131Z,25.20
2018-05-12T12:44:08.902Z,25.10
2018-05-12T12:45:06.186Z,25.10
2018-05-12T12:46:05.315Z,25.10
2018-05-12T12:47:05.715Z,25.10
2018-05-12T12:48:13.690Z,25.00
2018-05-12T12:49:05.581Z,25.00
2018-05-12T12:50:05.892Z,25.00
2018-05-12T12:51:05.644Z,25.00
2018-05-12T12:52:10.640Z,25.10